sensor_id;sensor_type;location;lat;lon;timestamp;P1;durP1;ratioP1;P2;durP2;ratioP2
74162;SDS011;62515;52.758;5.076;2022-12-11T07:14:33;30.75;;;14.57;;
74162;SDS011;62515;52.758;5.076;2022-12-11T07:21:33;25.70;;;14.10;;
74162;SDS011;62515;52.758;5.076;2022-12-11T07:48:21;26.02;;;13.52;;
74162;SDS011;62515;52.758;5.076;2022-12-11T07:50:48;30.38;;;15.63;;
74162;SDS011;62515;52.758;5.076;2022-12-11T07:53:15;30.27;;;14.63;;
74162;SDS011;62515;52.758;5.076;2022-12-11T07:55:44;26.67;;;15.40;;
74162;SDS011;62515;52.758;5.076;2022-12-11T07:58:10;34.47;;;16.80;;
74162;SDS011;62515;52.758;5.076;2022-12-11T08:00:37;35.30;;;17.25;;
74162;SDS011;62515;52.758;5.076;2022-12-11T08:03:04;32.22;;;16.60;;
74162;SDS011;62515;52.758;5.076;2022-12-11T08:05:32;32.88;;;14.90;;
74162;SDS011;62515;52.758;5.076;2022-12-11T08:07:59;33.05;;;19.20;;
74162;SDS011;62515;52.758;5.076;2022-12-11T08:10:26;35.80;;;17.00;;
74162;SDS011;62515;52.758;5.076;2022-12-11T08:12:53;32.63;;;17.50;;
74162;SDS011;62515;52.758;5.076;2022-12-11T08:15:20;38.13;;;16.67;;
74162;SDS011;62515;52.758;5.076;2022-12-11T08:17:47;28.25;;;15.50;;
74162;SDS011;62515;52.758;5.076;2022-12-11T08:20:14;44.40;;;31.17;;
74162;SDS011;62515;52.758;5.076;2022-12-11T08:22:42;34.88;;;18.42;;
74162;SDS011;62515;52.758;5.076;2022-12-11T08:25:09;36.65;;;17.45;;
74162;SDS011;62515;52.758;5.076;2022-12-11T08:27:37;32.28;;;17.17;;
74162;SDS011;62515;52.758;5.076;2022-12-11T08:30:04;29.85;;;16.30;;
74162;SDS011;62515;52.758;5.076;2022-12-11T08:32:32;30.40;;;15.93;;
74162;SDS011;62515;52.758;5.076;2022-12-11T08:35:00;33.38;;;16.13;;
74162;SDS011;62515;52.758;5.076;2022-12-11T08:37:27;37.28;;;14.85;;
74162;SDS011;62515;52.758;5.076;2022-12-11T08:42:38;34.97;;;16.67;;
74162;SDS011;62515;52.758;5.076;2022-12-11T08:45:06;27.17;;;16.05;;
74162;SDS011;62515;52.758;5.076;2022-12-11T08:47:34;31.95;;;15.60;;
74162;SDS011;62515;52.758;5.076;2022-12-11T08:50:02;30.25;;;15.15;;
74162;SDS011;62515;52.758;5.076;2022-12-11T08:52:29;33.55;;;16.33;;
74162;SDS011;62515;52.758;5.076;2022-12-11T08:54:57;34.22;;;15.70;;
74162;SDS011;62515;52.758;5.076;2022-12-11T08:57:25;27.08;;;14.05;;
74162;SDS011;62515;52.758;5.076;2022-12-11T08:59:53;26.65;;;15.68;;
74162;SDS011;62515;52.758;5.076;2022-12-11T09:02:20;30.38;;;14.82;;
74162;SDS011;62515;52.758;5.076;2022-12-11T09:04:47;23.90;;;13.43;;
74162;SDS011;62515;52.758;5.076;2022-12-11T09:07:14;27.48;;;13.73;;
74162;SDS011;62515;52.758;5.076;2022-12-11T09:09:41;29.33;;;16.17;;
74162;SDS011;62515;52.758;5.076;2022-12-11T09:12:08;22.50;;;14.20;;
74162;SDS011;62515;52.758;5.076;2022-12-11T09:14:37;26.85;;;13.63;;
74162;SDS011;62515;52.758;5.076;2022-12-11T09:17:04;22.13;;;12.55;;
74162;SDS011;62515;52.758;5.076;2022-12-11T09:19:31;18.98;;;11.02;;
74162;SDS011;62515;52.758;5.076;2022-12-11T09:21:58;21.05;;;12.60;;
74162;SDS011;62515;52.758;5.076;2022-12-11T09:24:25;25.75;;;12.25;;
74162;SDS011;62515;52.758;5.076;2022-12-11T09:26:52;21.90;;;11.65;;
74162;SDS011;62515;52.758;5.076;2022-12-11T09:29:20;23.70;;;11.52;;
74162;SDS011;62515;52.758;5.076;2022-12-11T09:31:48;21.00;;;12.27;;
74162;SDS011;62515;52.758;5.076;2022-12-11T09:34:15;23.23;;;13.65;;
74162;SDS011;62515;52.758;5.076;2022-12-11T09:36:42;22.25;;;15.52;;
74162;SDS011;62515;52.758;5.076;2022-12-11T09:39:10;20.25;;;12.27;;
74162;SDS011;62515;52.758;5.076;2022-12-11T09:41:39;18.88;;;10.50;;
74162;SDS011;62515;52.758;5.076;2022-12-11T09:44:22;20.52;;;11.10;;
74162;SDS011;62515;52.758;5.076;2022-12-11T09:46:58;19.27;;;10.65;;
74162;SDS011;62515;52.758;5.076;2022-12-11T09:49:27;19.30;;;10.55;;
74162;SDS011;62515;52.758;5.076;2022-12-11T09:52:02;21.23;;;12.00;;
74162;SDS011;62515;52.758;5.076;2022-12-11T09:54:35;19.90;;;11.18;;
74162;SDS011;62515;52.758;5.076;2022-12-11T09:57:09;20.40;;;11.73;;
74162;SDS011;62515;52.758;5.076;2022-12-11T09:59:47;16.08;;;10.57;;
74162;SDS011;62515;52.758;5.076;2022-12-11T10:02:33;18.02;;;10.82;;
74162;SDS011;62515;52.758;5.076;2022-12-11T10:05:12;15.10;;;10.43;;
74162;SDS011;62515;52.758;5.076;2022-12-11T10:07:47;25.15;;;11.35;;
74162;SDS011;62515;52.758;5.076;2022-12-11T10:10:21;25.77;;;13.80;;
74162;SDS011;62515;52.758;5.076;2022-12-11T10:13:00;19.00;;;13.15;;
74162;SDS011;62515;52.758;5.076;2022-12-11T10:15:48;24.48;;;11.95;;
74162;SDS011;62515;52.758;5.076;2022-12-11T10:18:22;19.45;;;11.57;;
74162;SDS011;62515;52.758;5.076;2022-12-11T10:20:51;22.17;;;11.10;;
74162;SDS011;62515;52.758;5.076;2022-12-11T10:23:20;23.70;;;13.68;;
74162;SDS011;62515;52.758;5.076;2022-12-11T10:25:51;18.92;;;12.20;;
74162;SDS011;62515;52.758;5.076;2022-12-11T10:28:26;18.75;;;11.35;;
74162;SDS011;62515;52.758;5.076;2022-12-11T10:30:55;20.83;;;13.68;;
74162;SDS011;62515;52.758;5.076;2022-12-11T10:33:37;17.10;;;9.50;;
74162;SDS011;62515;52.758;5.076;2022-12-11T10:36:12;25.08;;;16.15;;
74162;SDS011;62515;52.758;5.076;2022-12-11T10:38:46;16.25;;;10.77;;
74162;SDS011;62515;52.758;5.076;2022-12-11T10:41:16;24.27;;;17.73;;
74162;SDS011;62515;52.758;5.076;2022-12-11T10:43:46;21.45;;;11.98;;
74162;SDS011;62515;52.758;5.076;2022-12-11T10:46:16;18.35;;;10.05;;
74162;SDS011;62515;52.758;5.076;2022-12-11T10:51:14;16.35;;;9.95;;
74162;SDS011;62515;52.758;5.076;2022-12-11T10:53:42;15.80;;;9.15;;
74162;SDS011;62515;52.758;5.076;2022-12-11T10:56:14;19.63;;;10.82;;
74162;SDS011;62515;52.758;5.076;2022-12-11T10:58:50;17.65;;;10.85;;
74162;SDS011;62515;52.758;5.076;2022-12-11T11:01:19;17.30;;;9.88;;
74162;SDS011;62515;52.758;5.076;2022-12-11T11:03:54;12.23;;;8.73;;
74162;SDS011;62515;52.758;5.076;2022-12-11T11:06:24;18.52;;;9.15;;
74162;SDS011;62515;52.758;5.076;2022-12-11T11:08:53;15.18;;;9.00;;
74162;SDS011;62515;52.758;5.076;2022-12-11T11:11:23;17.23;;;10.45;;
74162;SDS011;62515;52.758;5.076;2022-12-11T11:17:10;17.27;;;9.38;;
74162;SDS011;62515;52.758;5.076;2022-12-11T11:19:43;17.70;;;9.73;;
74162;SDS011;62515;52.758;5.076;2022-12-11T11:22:13;17.60;;;10.73;;
74162;SDS011;62515;52.758;5.076;2022-12-11T11:27:10;16.23;;;10.45;;
74162;SDS011;62515;52.758;5.076;2022-12-11T11:29:39;15.77;;;9.90;;
74162;SDS011;62515;52.758;5.076;2022-12-11T11:32:13;14.48;;;9.15;;
74162;SDS011;62515;52.758;5.076;2022-12-11T11:34:45;17.48;;;10.63;;
74162;SDS011;62515;52.758;5.076;2022-12-11T11:37:21;16.08;;;8.20;;
74162;SDS011;62515;52.758;5.076;2022-12-11T11:39:51;16.73;;;9.70;;
74162;SDS011;62515;52.758;5.076;2022-12-11T11:42:24;16.63;;;10.13;;
74162;SDS011;62515;52.758;5.076;2022-12-11T11:45:01;14.07;;;8.45;;
74162;SDS011;62515;52.758;5.076;2022-12-11T11:47:33;13.38;;;7.65;;
74162;SDS011;62515;52.758;5.076;2022-12-11T11:50:11;15.20;;;10.50;;
74162;SDS011;62515;52.758;5.076;2022-12-11T11:52:47;14.38;;;9.13;;
74162;SDS011;62515;52.758;5.076;2022-12-11T11:55:24;15.88;;;9.45;;
74162;SDS011;62515;52.758;5.076;2022-12-11T11:57:59;11.63;;;7.50;;
74162;SDS011;62515;52.758;5.076;2022-12-11T12:00:33;15.75;;;9.25;;
74162;SDS011;62515;52.758;5.076;2022-12-11T12:03:00;14.73;;;10.20;;
74162;SDS011;62515;52.758;5.076;2022-12-11T12:05:35;111.07;;;102.97;;
74162;SDS011;62515;52.758;5.076;2022-12-11T12:08:08;96.43;;;89.15;;
74162;SDS011;62515;52.758;5.076;2022-12-11T12:10:43;43.00;;;39.45;;
74162;SDS011;62515;52.758;5.076;2022-12-11T12:13:18;27.33;;;24.60;;
74162;SDS011;62515;52.758;5.076;2022-12-11T12:16:14;18.75;;;16.00;;
74162;SDS011;62515;52.758;5.076;2022-12-11T12:19:10;21.08;;;18.83;;
74162;SDS011;62515;52.758;5.076;2022-12-11T12:21:44;10.98;;;9.02;;
74162;SDS011;62515;52.758;5.076;2022-12-11T12:24:17;14.48;;;8.95;;
74162;SDS011;62515;52.758;5.076;2022-12-11T12:26:55;18.45;;;15.07;;
74162;SDS011;62515;52.758;5.076;2022-12-11T12:29:31;14.95;;;8.13;;
74162;SDS011;62515;52.758;5.076;2022-12-11T12:32:14;16.17;;;9.82;;
74162;SDS011;62515;52.758;5.076;2022-12-11T12:34:54;14.32;;;8.23;;
74162;SDS011;62515;52.758;5.076;2022-12-11T12:37:37;16.55;;;10.27;;
74162;SDS011;62515;52.758;5.076;2022-12-11T12:40:14;17.83;;;8.50;;
74162;SDS011;62515;52.758;5.076;2022-12-11T12:42:50;15.35;;;8.35;;
74162;SDS011;62515;52.758;5.076;2022-12-11T12:45:24;13.88;;;7.82;;
74162;SDS011;62515;52.758;5.076;2022-12-11T12:47:54;15.50;;;9.70;;
74162;SDS011;62515;52.758;5.076;2022-12-11T12:50:21;18.92;;;14.77;;
74162;SDS011;62515;52.758;5.076;2022-12-11T12:52:52;14.50;;;7.88;;
74162;SDS011;62515;52.758;5.076;2022-12-11T12:55:21;12.75;;;8.77;;
74162;SDS011;62515;52.758;5.076;2022-12-11T12:57:51;18.65;;;10.32;;
74162;SDS011;62515;52.758;5.076;2022-12-11T13:00:25;16.23;;;8.65;;
74162;SDS011;62515;52.758;5.076;2022-12-11T13:02:53;19.48;;;9.00;;
74162;SDS011;62515;52.758;5.076;2022-12-11T13:05:22;16.00;;;8.25;;
74162;SDS011;62515;52.758;5.076;2022-12-11T13:07:53;16.50;;;9.93;;
74162;SDS011;62515;52.758;5.076;2022-12-11T13:10:23;17.50;;;9.20;;
74162;SDS011;62515;52.758;5.076;2022-12-11T13:12:54;16.65;;;9.10;;
74162;SDS011;62515;52.758;5.076;2022-12-11T13:15:23;16.17;;;9.35;;
74162;SDS011;62515;52.758;5.076;2022-12-11T13:17:55;16.00;;;9.63;;
74162;SDS011;62515;52.758;5.076;2022-12-11T13:20:24;17.17;;;9.23;;
74162;SDS011;62515;52.758;5.076;2022-12-11T13:22:55;16.05;;;8.95;;
74162;SDS011;62515;52.758;5.076;2022-12-11T13:25:49;15.35;;;9.20;;
74162;SDS011;62515;52.758;5.076;2022-12-11T13:28:20;18.88;;;10.40;;
74162;SDS011;62515;52.758;5.076;2022-12-11T13:30:55;18.40;;;10.80;;
74162;SDS011;62515;52.758;5.076;2022-12-11T13:33:23;17.52;;;11.73;;
74162;SDS011;62515;52.758;5.076;2022-12-11T13:36:11;14.65;;;9.18;;
74162;SDS011;62515;52.758;5.076;2022-12-11T13:39:03;20.00;;;11.27;;
74162;SDS011;62515;52.758;5.076;2022-12-11T13:41:34;22.65;;;12.52;;
74162;SDS011;62515;52.758;5.076;2022-12-11T13:44:03;24.92;;;11.82;;
74162;SDS011;62515;52.758;5.076;2022-12-11T13:46:33;23.65;;;10.88;;
74162;SDS011;62515;52.758;5.076;2022-12-11T13:49:03;18.30;;;10.43;;
74162;SDS011;62515;52.758;5.076;2022-12-11T13:51:32;19.80;;;13.05;;
74162;SDS011;62515;52.758;5.076;2022-12-11T13:54:11;19.58;;;11.25;;
74162;SDS011;62515;52.758;5.076;2022-12-11T13:56:53;18.35;;;10.52;;
74162;SDS011;62515;52.758;5.076;2022-12-11T13:59:23;21.48;;;12.00;;
74162;SDS011;62515;52.758;5.076;2022-12-11T14:01:53;28.75;;;23.42;;
74162;SDS011;62515;52.758;5.076;2022-12-11T14:04:22;22.40;;;12.27;;
74162;SDS011;62515;52.758;5.076;2022-12-11T14:06:50;20.55;;;11.73;;
74162;SDS011;62515;52.758;5.076;2022-12-11T14:09:19;20.33;;;11.02;;
74162;SDS011;62515;52.758;5.076;2022-12-11T14:11:49;24.23;;;12.50;;
74162;SDS011;62515;52.758;5.076;2022-12-11T14:14:23;22.33;;;12.15;;
74162;SDS011;62515;52.758;5.076;2022-12-11T14:16:56;24.05;;;11.43;;
74162;SDS011;62515;52.758;5.076;2022-12-11T14:19:23;25.13;;;12.35;;
74162;SDS011;62515;52.758;5.076;2022-12-11T14:21:54;25.35;;;13.32;;
74162;SDS011;62515;52.758;5.076;2022-12-11T14:24:24;25.98;;;12.93;;
74162;SDS011;62515;52.758;5.076;2022-12-11T14:26:52;23.55;;;12.60;;
74162;SDS011;62515;52.758;5.076;2022-12-11T14:29:23;20.50;;;12.48;;
74162;SDS011;62515;52.758;5.076;2022-12-11T14:31:52;20.83;;;12.30;;
74162;SDS011;62515;52.758;5.076;2022-12-11T14:34:21;20.80;;;11.88;;
74162;SDS011;62515;52.758;5.076;2022-12-11T14:36:51;24.77;;;13.52;;
74162;SDS011;62515;52.758;5.076;2022-12-11T14:39:21;24.42;;;12.10;;
74162;SDS011;62515;52.758;5.076;2022-12-11T14:41:57;26.27;;;13.60;;
74162;SDS011;62515;52.758;5.076;2022-12-11T14:44:28;25.88;;;12.60;;
74162;SDS011;62515;52.758;5.076;2022-12-11T14:46:59;26.23;;;13.10;;
74162;SDS011;62515;52.758;5.076;2022-12-11T14:49:31;26.67;;;13.02;;
74162;SDS011;62515;52.758;5.076;2022-12-11T14:52:04;29.35;;;13.82;;
74162;SDS011;62515;52.758;5.076;2022-12-11T14:54:41;30.67;;;14.63;;
74162;SDS011;62515;52.758;5.076;2022-12-11T14:57:15;28.77;;;12.88;;
74162;SDS011;62515;52.758;5.076;2022-12-11T14:59:46;31.15;;;15.20;;
74162;SDS011;62515;52.758;5.076;2022-12-11T15:05:04;30.33;;;17.50;;
74162;SDS011;62515;52.758;5.076;2022-12-11T15:07:41;29.05;;;14.88;;
74162;SDS011;62515;52.758;5.076;2022-12-11T15:10:24;29.27;;;13.95;;
74162;SDS011;62515;52.758;5.076;2022-12-11T15:12:57;32.60;;;16.60;;
74162;SDS011;62515;52.758;5.076;2022-12-11T15:15:25;31.52;;;15.43;;
74162;SDS011;62515;52.758;5.076;2022-12-11T15:17:55;33.65;;;15.00;;
74162;SDS011;62515;52.758;5.076;2022-12-11T15:20:24;35.45;;;16.00;;
74162;SDS011;62515;52.758;5.076;2022-12-11T15:22:53;35.50;;;14.55;;
74162;SDS011;62515;52.758;5.076;2022-12-11T15:25:26;32.50;;;15.65;;
74162;SDS011;62515;52.758;5.076;2022-12-11T15:27:55;33.83;;;14.80;;
74162;SDS011;62515;52.758;5.076;2022-12-11T15:30:24;33.90;;;15.65;;
74162;SDS011;62515;52.758;5.076;2022-12-11T15:33:04;36.70;;;15.60;;
74162;SDS011;62515;52.758;5.076;2022-12-11T15:35:51;35.65;;;16.35;;
74162;SDS011;62515;52.758;5.076;2022-12-11T15:38:31;33.25;;;13.48;;
74162;SDS011;62515;52.758;5.076;2022-12-11T15:41:02;31.65;;;15.23;;
74162;SDS011;62515;52.758;5.076;2022-12-11T15:43:30;38.85;;;16.38;;
74162;SDS011;62515;52.758;5.076;2022-12-11T15:46:00;31.95;;;13.95;;
74162;SDS011;62515;52.758;5.076;2022-12-11T15:48:27;33.78;;;14.73;;
74162;SDS011;62515;52.758;5.076;2022-12-11T15:50:54;30.20;;;14.00;;
74162;SDS011;62515;52.758;5.076;2022-12-11T15:53:21;34.03;;;15.10;;
74162;SDS011;62515;52.758;5.076;2022-12-11T15:55:48;29.13;;;14.73;;
74162;SDS011;62515;52.758;5.076;2022-12-11T15:58:18;33.63;;;14.55;;
74162;SDS011;62515;52.758;5.076;2022-12-11T16:00:46;34.50;;;15.13;;
74162;SDS011;62515;52.758;5.076;2022-12-11T16:03:14;37.25;;;15.30;;
74162;SDS011;62515;52.758;5.076;2022-12-11T16:08:11;33.85;;;16.50;;
74162;SDS011;62515;52.758;5.076;2022-12-11T16:10:40;37.55;;;18.85;;
74162;SDS011;62515;52.758;5.076;2022-12-11T16:13:08;35.58;;;16.23;;
74162;SDS011;62515;52.758;5.076;2022-12-11T16:15:38;33.95;;;14.23;;
74162;SDS011;62515;52.758;5.076;2022-12-11T16:18:08;37.70;;;16.20;;
74162;SDS011;62515;52.758;5.076;2022-12-11T16:20:36;39.85;;;16.00;;
74162;SDS011;62515;52.758;5.076;2022-12-11T16:23:04;36.22;;;14.70;;
74162;SDS011;62515;52.758;5.076;2022-12-11T16:25:31;39.63;;;16.50;;
74162;SDS011;62515;52.758;5.076;2022-12-11T16:27:59;37.03;;;15.25;;
74162;SDS011;62515;52.758;5.076;2022-12-11T16:30:27;40.13;;;15.23;;
74162;SDS011;62515;52.758;5.076;2022-12-11T16:32:56;36.30;;;15.27;;
74162;SDS011;62515;52.758;5.076;2022-12-11T16:35:25;33.30;;;13.95;;
74162;SDS011;62515;52.758;5.076;2022-12-11T16:37:54;31.08;;;13.70;;
74162;SDS011;62515;52.758;5.076;2022-12-11T16:40:21;37.40;;;15.15;;
74162;SDS011;62515;52.758;5.076;2022-12-11T16:42:49;36.25;;;15.48;;
74162;SDS011;62515;52.758;5.076;2022-12-11T16:45:17;34.08;;;14.88;;
74162;SDS011;62515;52.758;5.076;2022-12-11T16:47:46;37.10;;;14.27;;
74162;SDS011;62515;52.758;5.076;2022-12-11T16:50:15;42.22;;;17.67;;
74162;SDS011;62515;52.758;5.076;2022-12-11T16:52:43;35.22;;;15.98;;
74162;SDS011;62515;52.758;5.076;2022-12-11T16:55:11;34.25;;;17.15;;
74162;SDS011;62515;52.758;5.076;2022-12-11T16:57:39;37.20;;;16.50;;
74162;SDS011;62515;52.758;5.076;2022-12-11T17:00:08;41.33;;;18.85;;
74162;SDS011;62515;52.758;5.076;2022-12-11T17:02:40;34.53;;;17.42;;
74162;SDS011;62515;52.758;5.076;2022-12-11T17:05:07;34.40;;;17.40;;
74162;SDS011;62515;52.758;5.076;2022-12-11T17:07:37;36.35;;;16.58;;
74162;SDS011;62515;52.758;5.076;2022-12-11T17:10:05;46.25;;;19.08;;
74162;SDS011;62515;52.758;5.076;2022-12-11T17:12:32;31.73;;;14.35;;
74162;SDS011;62515;52.758;5.076;2022-12-11T17:15:00;83.32;;;20.10;;
74162;SDS011;62515;52.758;5.076;2022-12-11T17:17:27;39.10;;;19.10;;
74162;SDS011;62515;52.758;5.076;2022-12-11T17:19:54;39.30;;;18.33;;
74162;SDS011;62515;52.758;5.076;2022-12-11T17:22:21;40.38;;;16.60;;
74162;SDS011;62515;52.758;5.076;2022-12-11T17:24:50;39.33;;;15.60;;
74162;SDS011;62515;52.758;5.076;2022-12-11T17:27:17;37.13;;;17.13;;
74162;SDS011;62515;52.758;5.076;2022-12-11T17:29:44;44.75;;;20.02;;
74162;SDS011;62515;52.758;5.076;2022-12-11T17:32:12;38.55;;;16.67;;
74162;SDS011;62515;52.758;5.076;2022-12-11T17:34:39;45.17;;;19.30;;
74162;SDS011;62515;52.758;5.076;2022-12-11T17:37:06;40.40;;;16.13;;
74162;SDS011;62515;52.758;5.076;2022-12-11T17:39:33;38.25;;;17.85;;
74162;SDS011;62515;52.758;5.076;2022-12-11T17:42:01;36.00;;;15.88;;
74162;SDS011;62515;52.758;5.076;2022-12-11T17:44:28;37.55;;;16.27;;
74162;SDS011;62515;52.758;5.076;2022-12-11T17:46:56;36.97;;;17.13;;
74162;SDS011;62515;52.758;5.076;2022-12-11T17:49:23;34.60;;;16.20;;
74162;SDS011;62515;52.758;5.076;2022-12-11T17:51:50;33.17;;;17.13;;
74162;SDS011;62515;52.758;5.076;2022-12-11T17:54:21;35.60;;;15.38;;
74162;SDS011;62515;52.758;5.076;2022-12-11T17:56:49;37.53;;;16.30;;
74162;SDS011;62515;52.758;5.076;2022-12-11T17:59:17;36.97;;;16.30;;
74162;SDS011;62515;52.758;5.076;2022-12-11T18:01:44;32.70;;;15.23;;
74162;SDS011;62515;52.758;5.076;2022-12-11T18:04:11;34.55;;;15.35;;
74162;SDS011;62515;52.758;5.076;2022-12-11T18:06:38;33.70;;;13.98;;
74162;SDS011;62515;52.758;5.076;2022-12-11T18:09:05;28.65;;;14.85;;
74162;SDS011;62515;52.758;5.076;2022-12-11T18:11:33;32.70;;;16.25;;
74162;SDS011;62515;52.758;5.076;2022-12-11T18:14:00;34.35;;;16.52;;
74162;SDS011;62515;52.758;5.076;2022-12-11T18:17:01;36.85;;;16.40;;
74162;SDS011;62515;52.758;5.076;2022-12-11T18:19:29;35.60;;;15.63;;
74162;SDS011;62515;52.758;5.076;2022-12-11T18:21:56;30.88;;;14.38;;
74162;SDS011;62515;52.758;5.076;2022-12-11T18:24:23;38.58;;;14.40;;
74162;SDS011;62515;52.758;5.076;2022-12-11T18:26:56;37.58;;;17.00;;
74162;SDS011;62515;52.758;5.076;2022-12-11T18:29:25;31.25;;;15.60;;
74162;SDS011;62515;52.758;5.076;2022-12-11T18:31:52;35.72;;;14.52;;
74162;SDS011;62515;52.758;5.076;2022-12-11T18:34:20;37.85;;;15.20;;
74162;SDS011;62515;52.758;5.076;2022-12-11T18:36:47;32.78;;;14.00;;
74162;SDS011;62515;52.758;5.076;2022-12-11T18:39:15;43.20;;;17.98;;
74162;SDS011;62515;52.758;5.076;2022-12-11T18:41:41;36.50;;;16.58;;
74162;SDS011;62515;52.758;5.076;2022-12-11T18:44:08;40.58;;;13.68;;
74162;SDS011;62515;52.758;5.076;2022-12-11T18:46:35;32.30;;;14.43;;
74162;SDS011;62515;52.758;5.076;2022-12-11T18:49:03;33.22;;;16.05;;
74162;SDS011;62515;52.758;5.076;2022-12-11T18:51:33;34.67;;;17.20;;
74162;SDS011;62515;52.758;5.076;2022-12-11T18:54:00;38.67;;;16.92;;
74162;SDS011;62515;52.758;5.076;2022-12-11T18:56:27;34.03;;;16.15;;
74162;SDS011;62515;52.758;5.076;2022-12-11T18:58:54;32.70;;;16.02;;
74162;SDS011;62515;52.758;5.076;2022-12-11T19:01:21;32.70;;;14.73;;
74162;SDS011;62515;52.758;5.076;2022-12-11T19:03:49;31.95;;;14.23;;
74162;SDS011;62515;52.758;5.076;2022-12-11T19:06:23;28.20;;;14.10;;
74162;SDS011;62515;52.758;5.076;2022-12-11T19:08:55;37.78;;;16.25;;
74162;SDS011;62515;52.758;5.076;2022-12-11T19:11:24;38.92;;;15.50;;
74162;SDS011;62515;52.758;5.076;2022-12-11T19:13:52;36.40;;;16.02;;
74162;SDS011;62515;52.758;5.076;2022-12-11T19:16:23;35.22;;;15.73;;
74162;SDS011;62515;52.758;5.076;2022-12-11T19:18:51;39.33;;;17.02;;
74162;SDS011;62515;52.758;5.076;2022-12-11T19:21:19;41.15;;;16.45;;
74162;SDS011;62515;52.758;5.076;2022-12-11T19:23:46;36.63;;;17.05;;
74162;SDS011;62515;52.758;5.076;2022-12-11T19:26:16;36.17;;;16.60;;
74162;SDS011;62515;52.758;5.076;2022-12-11T19:28:45;37.13;;;16.95;;
74162;SDS011;62515;52.758;5.076;2022-12-11T19:31:14;31.00;;;14.50;;
74162;SDS011;62515;52.758;5.076;2022-12-11T19:33:45;38.22;;;16.27;;
74162;SDS011;62515;52.758;5.076;2022-12-11T19:36:13;40.92;;;17.90;;
74162;SDS011;62515;52.758;5.076;2022-12-11T19:38:42;33.92;;;15.65;;
74162;SDS011;62515;52.758;5.076;2022-12-11T19:41:11;35.33;;;15.32;;
74162;SDS011;62515;52.758;5.076;2022-12-11T19:43:42;40.78;;;17.23;;
74162;SDS011;62515;52.758;5.076;2022-12-11T19:46:16;32.10;;;14.10;;
74162;SDS011;62515;52.758;5.076;2022-12-11T19:48:43;35.67;;;17.42;;
74162;SDS011;62515;52.758;5.076;2022-12-11T19:51:11;31.20;;;16.38;;
74162;SDS011;62515;52.758;5.076;2022-12-11T19:53:40;36.25;;;16.30;;
74162;SDS011;62515;52.758;5.076;2022-12-11T19:56:08;33.30;;;17.35;;
74162;SDS011;62515;52.758;5.076;2022-12-11T19:58:35;36.30;;;16.17;;
74162;SDS011;62515;52.758;5.076;2022-12-11T20:01:04;33.40;;;15.10;;
74162;SDS011;62515;52.758;5.076;2022-12-11T20:03:32;37.70;;;16.25;;
74162;SDS011;62515;52.758;5.076;2022-12-11T20:06:01;40.13;;;16.33;;
74162;SDS011;62515;52.758;5.076;2022-12-11T20:08:29;36.13;;;14.48;;
74162;SDS011;62515;52.758;5.076;2022-12-11T20:11:12;36.13;;;17.17;;
74162;SDS011;62515;52.758;5.076;2022-12-11T20:13:44;42.92;;;17.60;;
74162;SDS011;62515;52.758;5.076;2022-12-11T20:16:13;32.03;;;16.10;;
74162;SDS011;62515;52.758;5.076;2022-12-11T20:18:41;34.30;;;16.20;;
74162;SDS011;62515;52.758;5.076;2022-12-11T20:21:08;38.17;;;16.17;;
74162;SDS011;62515;52.758;5.076;2022-12-11T20:23:39;37.15;;;16.90;;
74162;SDS011;62515;52.758;5.076;2022-12-11T20:26:07;34.25;;;16.10;;
74162;SDS011;62515;52.758;5.076;2022-12-11T20:28:35;28.55;;;13.68;;
74162;SDS011;62515;52.758;5.076;2022-12-11T20:31:03;33.22;;;16.35;;
74162;SDS011;62515;52.758;5.076;2022-12-11T20:33:32;32.63;;;16.73;;
74162;SDS011;62515;52.758;5.076;2022-12-11T20:35:59;35.65;;;17.23;;
74162;SDS011;62515;52.758;5.076;2022-12-11T20:38:26;34.08;;;16.23;;
74162;SDS011;62515;52.758;5.076;2022-12-11T20:40:59;42.90;;;18.73;;
74162;SDS011;62515;52.758;5.076;2022-12-11T20:43:26;35.35;;;17.45;;
74162;SDS011;62515;52.758;5.076;2022-12-11T20:45:53;32.85;;;15.93;;
74162;SDS011;62515;52.758;5.076;2022-12-11T20:48:20;34.85;;;17.02;;
74162;SDS011;62515;52.758;5.076;2022-12-11T20:50:49;29.75;;;15.40;;
74162;SDS011;62515;52.758;5.076;2022-12-11T20:53:16;32.00;;;15.95;;
74162;SDS011;62515;52.758;5.076;2022-12-11T20:55:43;27.77;;;15.77;;
74162;SDS011;62515;52.758;5.076;2022-12-11T20:58:10;36.65;;;16.63;;
74162;SDS011;62515;52.758;5.076;2022-12-11T21:00:38;33.90;;;15.65;;
74162;SDS011;62515;52.758;5.076;2022-12-11T21:03:05;34.60;;;16.98;;
74162;SDS011;62515;52.758;5.076;2022-12-11T21:05:32;28.42;;;15.43;;
74162;SDS011;62515;52.758;5.076;2022-12-11T21:08:01;31.02;;;16.30;;
74162;SDS011;62515;52.758;5.076;2022-12-11T21:10:28;31.75;;;16.58;;
74162;SDS011;62515;52.758;5.076;2022-12-11T21:12:55;31.88;;;15.43;;
74162;SDS011;62515;52.758;5.076;2022-12-11T21:15:22;25.23;;;13.40;;
74162;SDS011;62515;52.758;5.076;2022-12-11T21:17:49;33.08;;;15.05;;
74162;SDS011;62515;52.758;5.076;2022-12-11T21:20:17;28.75;;;14.75;;
74162;SDS011;62515;52.758;5.076;2022-12-11T21:22:45;30.92;;;16.42;;
74162;SDS011;62515;52.758;5.076;2022-12-11T21:25:13;35.97;;;16.70;;
74162;SDS011;62515;52.758;5.076;2022-12-11T21:27:40;28.83;;;15.05;;
74162;SDS011;62515;52.758;5.076;2022-12-11T21:30:07;28.80;;;15.40;;
74162;SDS011;62515;52.758;5.076;2022-12-11T21:32:34;25.83;;;14.05;;
74162;SDS011;62515;52.758;5.076;2022-12-11T21:35:02;28.95;;;14.15;;
74162;SDS011;62515;52.758;5.076;2022-12-11T21:37:29;36.55;;;15.68;;
74162;SDS011;62515;52.758;5.076;2022-12-11T21:39:56;24.20;;;13.13;;
74162;SDS011;62515;52.758;5.076;2022-12-11T21:42:24;30.08;;;15.55;;
74162;SDS011;62515;52.758;5.076;2022-12-11T21:44:53;26.40;;;14.88;;
74162;SDS011;62515;52.758;5.076;2022-12-11T21:47:40;21.67;;;13.05;;
74162;SDS011;62515;52.758;5.076;2022-12-11T21:50:07;31.95;;;15.20;;
74162;SDS011;62515;52.758;5.076;2022-12-11T21:52:35;28.98;;;15.48;;
74162;SDS011;62515;52.758;5.076;2022-12-11T21:55:03;27.60;;;14.77;;
74162;SDS011;62515;52.758;5.076;2022-12-11T21:57:32;25.83;;;13.00;;
74162;SDS011;62515;52.758;5.076;2022-12-11T22:00:00;21.65;;;11.93;;
74162;SDS011;62515;52.758;5.076;2022-12-11T22:02:37;25.30;;;13.73;;
74162;SDS011;62515;52.758;5.076;2022-12-11T22:05:07;28.45;;;13.05;;
74162;SDS011;62515;52.758;5.076;2022-12-11T22:07:34;27.73;;;13.60;;
74162;SDS011;62515;52.758;5.076;2022-12-11T22:10:01;24.90;;;13.30;;
74162;SDS011;62515;52.758;5.076;2022-12-11T22:12:28;26.90;;;13.02;;
74162;SDS011;62515;52.758;5.076;2022-12-11T22:14:57;24.70;;;13.45;;
74162;SDS011;62515;52.758;5.076;2022-12-11T22:17:23;24.17;;;12.70;;
74162;SDS011;62515;52.758;5.076;2022-12-11T22:19:50;27.38;;;13.52;;
74162;SDS011;62515;52.758;5.076;2022-12-11T22:22:17;19.27;;;10.98;;
74162;SDS011;62515;52.758;5.076;2022-12-11T22:24:44;26.90;;;13.98;;
74162;SDS011;62515;52.758;5.076;2022-12-11T22:27:11;28.02;;;13.60;;
74162;SDS011;62515;52.758;5.076;2022-12-11T22:29:38;25.05;;;13.27;;
74162;SDS011;62515;52.758;5.076;2022-12-11T22:32:06;26.95;;;13.63;;
74162;SDS011;62515;52.758;5.076;2022-12-11T22:34:33;25.15;;;11.68;;
74162;SDS011;62515;52.758;5.076;2022-12-11T22:37:00;26.70;;;14.90;;
74162;SDS011;62515;52.758;5.076;2022-12-11T22:39:27;23.77;;;12.63;;